Friday, December 14, 2018, 7:17 PM EST
Back to Local

KMPO, Mt Pocono Pocono Mountains

Location: Pocono Summit, PA, United States Lat: 41.133
Local Time: 7:17 PM EST ( 0:17 GMT) Lon: -75.383
Time Zone: US/Eastern Elev: 1915 ft

Show me the last for .
Show Decoded

2018-12-14 18:53 METAR KMPO 142353Z AUTO 18005KT 9SM OVC004 04/04 A3027 RMK AO2 SLP268 T00440044
                 10050 20028 58005 =
2018-12-14 18:42 METAR KMPO 142342Z AUTO 18006KT 9SM OVC004 04/04 A3028 RMK AO2 T00440044 =
2018-12-14 17:53 METAR KMPO 142253Z AUTO 18006KT 10SM OVC005 04/04 A3029 RMK AO2 CIG 004V009
                 SLP276 T00440044 =
2018-12-14 17:00 METAR KMPO 142200Z AUTO 20007KT 10SM BKN006 OVC011 04/04 A3030 RMK AO2 CIG
                 004V009 T00440044 =
2018-12-14 16:53 METAR KMPO 142153Z AUTO 20007KT 10SM FEW002 OVC008 04/04 A3029 RMK AO2 CIG
                 004V009 SLP275 T00440044 =
2018-12-14 16:15 METAR KMPO 142115Z AUTO 19007KT 3SM BR OVC002 05/05 A3030 RMK AO2 T00500050 =
2018-12-14 16:10 METAR KMPO 142110Z AUTO 19006KT 1SM BR VV002 04/04 A3029 RMK AO2 T00440044 =
2018-12-14 15:53 METAR KMPO 142053Z AUTO 18007KT 1/4SM FG VV001 04/04 A3030 RMK AO2 SLP278
                 T00440044 55003 =
2018-12-14 14:53 METAR KMPO 141953Z AUTO 16007KT M1/4SM FG VV001 03/03 A3028 RMK AO2 SLP271
                 T00330033 $ =
2018-12-14 13:53 METAR KMPO 141853Z AUTO 10004KT M1/4SM FG VV001 03/03 A3028 RMK AO2 SLP274
                 T00280028 $ =
2018-12-14 12:53 METAR KMPO 141753Z AUTO 09003KT M1/4SM FG VV001 03/03 A3031 RMK AO2 SLP284 I6001
                 T00280028 10028 20000 56025 $ =
2018-12-14 11:53 METAR KMPO 141653Z AUTO 13009KT M1/4SM FG VV001 03/03 A3031 RMK AO2 SLP285
                 T00280028 $ =
2018-12-14 10:53 METAR KMPO 141553Z AUTO 14007KT M1/4SM FG VV001 02/02 A3038 RMK AO2 SLP308
                 T00220022 $ =
2018-12-14 09:53 METAR KMPO 141453Z AUTO 12006KT M1/4SM FG VV001 01/01 A3039 RMK AO2 SLP313 I3001
                 T00110011 50005 $ =
2018-12-14 08:53 METAR KMPO 141353Z AUTO 12005KT M1/4SM FG VV001 01/01 A3041 RMK AO2 SLP320 I1000
                 T00060006 $ =
2018-12-14 07:53 METAR KMPO 141253Z AUTO 11006KT 1/4SM FG VV001 01/01 A3039 RMK AO2 SLP313 I1001
                 T00060006 $ =
2018-12-14 06:53 METAR KMPO 141153Z AUTO 10007KT 1/4SM FG VV001 00/00 A3037 RMK AO2 SLP309 I1004
                 I6019 T00000000 10000 21011 55001 $ =
2018-12-14 05:53 METAR KMPO 141053Z AUTO 11006KT 1/4SM FG VV001 00/00 A3037 RMK AO2 SLP308 I1002
                 T00000000 $ =
2018-12-14 04:53 METAR KMPO 140953Z AUTO 09008KT 1/4SM FG VV001 00/00 A3035 RMK AO2 SLP301 I1003
                 T00000000 $ =
2018-12-14 03:53 METAR KMPO 140853Z AUTO 11006KT 1/4SM FZFG VV001 M01/M01 A3038 RMK AO2 SLP311
                 I1005 I3010 T10061006 58001 $ =
2018-12-14 02:53 METAR KMPO 140753Z AUTO 09005KT 1/4SM FZFG VV001 M01/M01 A3038 RMK AO2 SLP314
                 I1003 T10061006 $ =
2018-12-14 01:53 METAR KMPO 140653Z AUTO 09006KT 1/4SM FZFG VV001 M01/M01 A3038 RMK AO2 SLP312
                 I1002 T10061006 $ =
2018-12-14 00:53 METAR KMPO 140553Z AUTO 10004KT 1/4SM FZFG VV001 M01/M01 A3038 RMK AO2 SLP312
                 I1003 I6014 T10111011 11011 21028 58003 $ =
2018-12-13 23:53 METAR KMPO 140453Z AUTO 10003KT 1/4SM FZFG VV001 M01/M01 A3039 RMK AO2 SLP316
                 I1001 T10111011 410111044 $ =
2018-12-13 22:53 METAR KMPO 140353Z AUTO 10005KT 1/4SM FZFG VV001 M01/M01 A3040 RMK AO2 SLP319
                 I1002 T10111011 $ =
2018-12-13 21:53 METAR KMPO 140253Z AUTO 10006KT 1/4SM FZFG VV001 M02/M02 A3039 RMK AO2 SLP318
                 I1003 I3008 T10171017 51008 $ =
2018-12-13 20:53 METAR KMPO 140153Z AUTO 10005KT 1/4SM FZFG VV001 M02/M02 A3039 RMK AO2 SLP317
                 I1003 T10221022 $ =
2018-12-13 20:35 METAR KMPO 140135Z AUTO 08004KT 1/4SM FZFG VV001 M02/M02 A3038 RMK AO2 I1002
                 T10221022 $ =
2018-12-13 19:53 METAR KMPO 140053Z AUTO 09007KT 1/2SM FZFG VV001 M02/M02 A3038 RMK AO2 SLP314
                 I1002 T10221022 $ =

Support USWX by starting your Amazon purchase here.